ADDS METAR Data INFO
IDs: Format: Raw Decoded Include TAF

Data at: 1944 UTC 18 Feb 2018

KSIF 181935Z AUTO 04003KT 10SM CLR 14/M02 A3034 RMK AO2 T01401017
KSIF 181915Z AUTO 07006KT 10SM CLR 14/M03 A3034 RMK AO2 T01411026
KSIF 181855Z AUTO 00000KT 10SM CLR 14/M02 A3034 RMK AO2 T01381017
KSIF 181835Z AUTO 15003KT 10SM CLR 13/M01 A3035 RMK AO2 T01331013
KSIF 181815Z AUTO 08003KT 10SM CLR 13/M02 A3035 RMK AO2 T01341016
KSIF 181755Z AUTO 00000KT 10SM CLR 13/M02 A3036 RMK AO2 T01291016 10130 20012
KSIF 181735Z AUTO 00000KT 10SM CLR 13/M02 A3036 RMK AO2 T01291017
KSIF 181715Z AUTO 36005KT 10SM CLR 13/M02 A3038 RMK AO2 T01251018
KSIF 181655Z AUTO 05006KT 10SM CLR 12/M01 A3038 RMK AO2 T01221009
KSIF 181635Z AUTO 03004KT 10SM CLR 12/01 A3038 RMK AO2 T01160009
KSIF 181615Z AUTO 00000KT 10SM CLR 11/01 A3038 RMK AO2 T01060012
KSIF 181555Z AUTO 03005KT 10SM CLR 11/02 A3038 RMK AO2 T01090015
KSIF 181535Z AUTO 01003KT 10SM CLR 10/01 A3037 RMK AO2 T01010010
KSIF 181515Z AUTO 35006KT 10SM CLR 10/02 A3036 RMK AO2 T01000022
KSIF 181455Z AUTO 36004KT 10SM CLR 09/05 A3036 RMK AO2 T00870048
KSIF 181435Z AUTO 35004KT 10SM CLR 08/05 A3035 RMK AO2 T00800047
KSIF 181415Z AUTO 02003KT 10SM CLR 08/06 A3034 RMK AO2 T00750055
KSIF 181355Z AUTO 01004KT 10SM CLR 07/06 A3032 RMK AO2 T00650059
KSIF 181335Z AUTO 00000KT 10SM CLR 05/05 A3031 RMK AO2 T00500050
KSIF 181315Z AUTO 00000KT 10SM CLR 04/04 A3028 RMK AO2 T00350035
KSIF 181255Z AUTO 00000KT 7SM CLR 02/02 A3028 RMK AO2 T00170017
KSIF 181235Z AUTO 36004KT 3SM BR SCT002 01/01 A3026 RMK AO2 T00140014
KSIF 181215Z AUTO 00000KT 1/4SM FG OVC002 02/02 A3025 RMK AO2 T00160016
KSIF 181155Z AUTO 00000KT 1/4SM FG OVC002 02/02 A3024 RMK AO2 70002 T00200020 10037 20020
KSIF 181135Z AUTO 00000KT 1/4SM FG OVC002 02/02 A3022 RMK AO2 T00230023
KSIF 181115Z AUTO 00000KT 1/4SM FG OVC002 03/03 A3021 RMK AO2 T00270027
KSIF 181055Z AUTO 00000KT 1/4SM FG OVC002 03/03 A3019 RMK AO2 T00300030
KSIF 181035Z AUTO 00000KT 1/4SM FG OVC002 03/03 A3019 RMK AO2 T00340034
KSIF 181015Z AUTO 00000KT 1/4SM FG OVC002 04/04 A3018 RMK AO2 T00350035
KSIF 180955Z AUTO 00000KT 1/4SM FG OVC002 04/04 A3017 RMK AO2 T00360036
KSIF 180935Z AUTO 00000KT 1/4SM FG OVC002 04/04 A3015 RMK AO2 T00360036
KSIF 180915Z AUTO 24004KT 1/2SM FG OVC002 04/04 A3014 RMK AO2 T00370037
KSIF 180855Z AUTO 26003KT 3/4SM BR OVC002 04/04 A3013 RMK AO2 T00360036
KSIF 180835Z AUTO 28003KT 1 3/4SM BR OVC002 04/04 A3013 RMK AO2 T00370037
KSIF 180815Z AUTO 00000KT 2 1/2SM BR OVC002 04/04 A3012 RMK AO2 T00360036
KSIF 180755Z AUTO 00000KT 4SM BR OVC002 04/04 A3011 RMK AO2 T00350035
KSIF 180735Z AUTO 22003KT 4SM BR OVC002 04/04 A3010 RMK AO2 T00350035
KSIF 180715Z AUTO 23004KT 5SM BR OVC002 04/04 A3010 RMK AO2 T00350035
KSIF 180655Z AUTO 23003KT 7SM OVC002 04/04 A3010 RMK AO2 T00350035
KSIF 180635Z AUTO 23003KT 7SM OVC002 04/04 A3010 RMK AO2 T00350035
KSIF 180615Z AUTO 28003KT 5SM BR OVC004 04/04 A3009 RMK AO2 T00350035
KSIF 180555Z AUTO 00000KT 5SM BR OVC004 03/03 A3010 RMK AO2 T00340034 10035 20030 400650030
KSIF 180535Z AUTO 00000KT 7SM OVC004 03/03 A3010 RMK AO2 T00340034
KSIF 180515Z AUTO 00000KT 7SM BKN004 BKN008 03/03 A3010 RMK AO2 T00320032
KSIF 180455Z AUTO 00000KT 10SM BKN004 BKN008 03/03 A3011 RMK AO2 T00340034
KSIF 180435Z AUTO 00000KT 10SM BKN004 04/04 A3011 RMK AO2 T00350035
KSIF 180415Z AUTO 00000KT 10SM SCT004 BKN065 04/04 A3011 RMK AO2 T00350035
KSIF 180355Z AUTO 00000KT 10SM BKN004 BKN018 OVC065 04/04 A3012 RMK AO2 T00350035
KSIF 180335Z AUTO 00000KT 10SM OVC004 03/03 A3012 RMK AO2 T00330033
KSIF 180315Z AUTO 00000KT 10SM OVC004 03/03 A3010 RMK AO2 T00320032
KSIF 180255Z AUTO 00000KT 10SM OVC004 03/03 A3011 RMK AO2 T00320032
KSIF 180235Z AUTO 00000KT 7SM OVC004 03/03 A3011 RMK AO2 T00310031
KSIF 180215Z AUTO 00000KT 4SM -RA OVC004 03/03 A3010 RMK AO2 T00300030
KSIF 180155Z AUTO 00000KT 2 1/2SM DZ OVC004 03/03 A3013 RMK AO2 T00310031
KSIF 180135Z AUTO 00000KT 2 1/2SM -RA OVC004 03/03 A3014 RMK AO2 T00310031
KSIF 180115Z AUTO 00000KT 5SM -RA OVC004 03/03 A3014 RMK AO2 T00310031
KSIF 180055Z AUTO 00000KT 3SM RA BKN004 BKN011 OVC026 03/03 A3012 RMK AO2 T00310031
KSIF 180035Z AUTO 00000KT 3SM RA BKN006 OVC028 03/03 A3012 RMK AO2 T00310031
KSIF 180015Z AUTO 00000KT 4SM DZ BKN004 BKN018 OVC028 03/03 A3013 RMK AO2 T00300030
KSIF 172355Z AUTO 03003KT 4SM DZ BKN004 BKN014 OVC028 03/03 A3014 RMK AO2 P0001 60002 T00320031 10045 20032
KSIF 172335Z AUTO 00000KT 4SM +DZ BKN004 OVC019 03/03 A3014 RMK AO2 P0001 T00320031
KSIF 172315Z AUTO 01003KT 3SM +DZ SCT004 OVC015 03/03 A3015 RMK AO2 T00330031
KSIF 172255Z AUTO 36003KT 4SM +DZ BKN006 BKN009 OVC013 03/03 A3015 RMK AO2 T00320030
KSIF 172235Z AUTO 36003KT 3SM +DZ OVC006 04/03 A3015 RMK AO2 T00350032
KSIF 172215Z AUTO 00000KT 5SM DZ OVC006 04/03 A3014 RMK AO2 T00350032
KSIF 172155Z AUTO 00000KT 7SM -DZ OVC006 04/03 A3014 RMK AO2 T00360032
KSIF 172135Z AUTO 00000KT 5SM RA OVC006 04/03 A3013 RMK AO2 T00380034
KSIF 172115Z AUTO 00000KT 10SM OVC006 04/03 A3014 RMK AO2 T00370031
KSIF 172055Z AUTO 00000KT 10SM -RA BKN006 OVC037 04/03 A3012 RMK AO2 60001 T00350030
KSIF 172035Z AUTO 10003KT 4SM DZ BKN004 OVC012 04/03 A3012 RMK AO2 T00350030
KSIF 172015Z AUTO 00000KT 2 1/2SM DZ BKN006 BKN012 OVC022 04/03 A3016 RMK AO2 T00350030
KSIF 171955Z AUTO 00000KT 2SM RA BKN008 OVC017 04/03 A3016 RMK AO2 P0001 T00350025
KSIF 171935Z AUTO 00000KT 3SM +DZ SCT013 BKN017 OVC030 04/02 A3016 RMK AO2 T00370022
KSIF 171915Z AUTO 00000KT 5SM DZ SCT013 OVC030 04/02 A3015 RMK AO2 T00410020
KSIF 171855Z AUTO 04003KT 7SM DZ OVC032 04/02 A3015 RMK AO2 T00420017
KSIF 171835Z AUTO 06003KT 10SM SCT024 OVC032 04/02 A3016 RMK AO2 T00420019
KSIF 171815Z AUTO 03003KT 10SM OVC032 04/02 A3018 RMK AO2 T00420020
KSIF 171755Z AUTO 07004KT 4SM DZ SCT026 OVC032 05/02 A3018 RMK AO2 T00460015 10065 20046
KSIF 171735Z AUTO 04003KT 10SM OVC032 06/00 A3021 RMK AO2 T00560002
KSIF 171715Z AUTO 06004KT 10SM OVC032 06/00 A3023 RMK AO2 T00600002
KSIF 171655Z AUTO 07006KT 10SM OVC032 06/00 A3023 RMK AO2 T00580000
KSIF 171635Z AUTO 10004KT 10SM OVC034 06/00 A3026 RMK AO2 T00600000
KSIF 171615Z AUTO 04004KT 10SM OVC036 06/00 A3028 RMK AO2 T00581001
KSIF 171555Z AUTO 00000KT 10SM OVC032 06/00 A3028 RMK AO2 T00580000
KSIF 171535Z AUTO 05003KT 10SM OVC032 06/00 A3028 RMK AO2 T00600003
KSIF 171515Z AUTO 05003KT 10SM OVC032 06/00 A3028 RMK AO2 T00580003
KSIF 171455Z AUTO 08004KT 10SM -RA OVC030 06/00 A3028 RMK AO2 T00600004
KSIF 171435Z AUTO 08004KT 10SM OVC030 06/00 A3031 RMK AO2 T00610002
KSIF 171415Z AUTO 00000KT 10SM OVC030 07/01 A3031 RMK AO2 T00650009
KSIF 171355Z AUTO 00000KT 10SM OVC030 06/03 A3031 RMK AO2 T00630025
KSIF 171335Z AUTO 00000KT 10SM OVC034 06/03 A3030 RMK AO2 T00620025
KSIF 171315Z AUTO 06005KT 10SM OVC036 06/02 A3030 RMK AO2 T00630024
KSIF 171255Z AUTO 08003KT 10SM BKN040 OVC050 06/02 A3029 RMK AO2 T00630023
KSIF 171235Z AUTO 04003KT 10SM SCT040 OVC050 06/03 A3029 RMK AO2 T00640025
KSIF 171215Z AUTO 08003KT 10SM OVC050 07/02 A3028 RMK AO2 T00650022
KSIF 171155Z AUTO 00000KT 10SM OVC050 06/02 A3029 RMK AO2 70007 T00640022 10065 20042
KSIF 171135Z AUTO 00000KT 10SM OVC050 06/02 A3029 RMK AO2 T00620023
KSIF 171115Z AUTO 00000KT 10SM OVC050 06/03 A3028 RMK AO2 T00600026
KSIF 171055Z AUTO 00000KT 10SM BKN050 06/03 A3028 RMK AO2 T00610025
KSIF 171035Z AUTO 00000KT 10SM BKN055 06/03 A3027 RMK AO2 T00570029
KSIF 171015Z AUTO 00000KT 10SM BKN055 06/03 A3026 RMK AO2 T00600027
KSIF 170955Z AUTO 00000KT 10SM SCT055 06/03 A3027 RMK AO2 T00550030
KSIF 170935Z AUTO 00000KT 10SM CLR 05/03 A3025 RMK AO2 T00490028
KSIF 170915Z AUTO 00000KT 10SM CLR 06/03 A3024 RMK AO2 T00560030
KSIF 170855Z AUTO 00000KT 10SM CLR 06/03 A3024 RMK AO2 T00580028
KSIF 170835Z AUTO 00000KT 10SM CLR 05/03 A3023 RMK AO2 T00510032
KSIF 170815Z AUTO 00000KT 10SM CLR 05/03 A3024 RMK AO2 T00500029
KSIF 170755Z AUTO 00000KT 10SM CLR 05/03 A3024 RMK AO2 T00510030